Time;durP1;ratioP1;P1;durP2;ratioP2;P2;SDS_P1;SDS_P2;PMS_P1;PMS_P2;Temp;Humidity;BMP_temperature;BMP_pressure;BME280_temperature;BME280_humidity;BME280_pressure;Samples;Min_cycle;Max_cycle;Signal;HPM_P1;HPM_P2
2022/12/01 00:02:14;;;;;;;15.37;10.97;;;;;;;;;;4871523;29;20829;-60
2022/12/01 00:04:41;;;;;;;16.03;10.80;;;;;;;;;;4869270;29;20187;-61
2022/12/01 00:07:11;;;;;;;16.37;11.80;;;;;;;;;;4854180;29;20191;-56
2022/12/01 00:12:32;;;;;;;14.97;11.13;;;;;;;;;;4870251;29;20811;-57
2022/12/01 00:15:04;;;;;;;17.00;11.37;;;;;;;;;;4860512;29;20195;-57
2022/12/01 00:17:36;;;;;;;16.50;11.60;;;;;;;;;;4860801;29;20932;-57
2022/12/01 00:20:35;;;;;;;13.47;10.50;;;;;;;;;;4872463;29;20202;-57
2022/12/01 00:23:04;;;;;;;15.13;10.57;;;;;;;;;;4863174;29;20203;-57
2022/12/01 00:25:37;;;;;;;14.27;11.10;;;;;;;;;;4871052;29;20733;-58
2022/12/01 00:28:06;;;;;;;20.43;12.47;;;;;;;;;;4867964;29;20892;-56
2022/12/01 00:30:53;;;;;;;15.90;11.73;;;;;;;;;;4870510;29;20311;-60
2022/12/01 00:33:19;;;;;;;18.50;11.23;;;;;;;;;;4871684;29;20171;-57
2022/12/01 00:35:46;;;;;;;17.40;11.23;;;;;;;;;;4869740;29;20191;-57
2022/12/01 00:38:12;;;;;;;16.83;10.93;;;;;;;;;;4864645;29;20201;-59
2022/12/01 00:40:54;;;;;;;17.30;11.03;;;;;;;;;;4871797;29;20206;-57
2022/12/01 00:43:20;;;;;;;17.13;11.73;;;;;;;;;;4853659;29;20217;-56
2022/12/01 00:45:49;;;;;;;17.57;11.90;;;;;;;;;;4867494;29;20275;-59
2022/12/01 00:48:18;;;;;;;17.77;12.43;;;;;;;;;;4863873;29;20187;-59
2022/12/01 00:50:48;;;;;;;18.33;11.90;;;;;;;;;;4872303;29;20192;-57
2022/12/01 00:53:14;;;;;;;18.50;12.30;;;;;;;;;;4861353;29;21098;-59
2022/12/01 00:55:57;;;;;;;18.93;12.33;;;;;;;;;;4868782;29;20306;-57
2022/12/01 00:58:24;;;;;;;17.70;11.47;;;;;;;;;;4870606;29;20201;-58
2022/12/01 01:00:57;;;;;;;18.90;12.60;;;;;;;;;;4869103;29;20227;-60
2022/12/01 01:03:24;;;;;;;18.50;12.83;;;;;;;;;;4870271;29;20218;-60
2022/12/01 01:05:53;;;;;;;18.03;12.50;;;;;;;;;;4853027;29;20187;-58
2022/12/01 01:08:34;;;;;;;20.13;12.67;;;;;;;;;;4873177;29;20192;-57
2022/12/01 01:11:01;;;;;;;20.07;13.80;;;;;;;;;;4855038;29;20195;-57
2022/12/01 01:13:27;;;;;;;22.83;14.77;;;;;;;;;;4864667;29;20204;-59
2022/12/01 01:16:01;;;;;;;20.13;14.37;;;;;;;;;;4869845;29;20188;-58
2022/12/01 01:18:28;;;;;;;23.73;14.37;;;;;;;;;;4872245;29;20190;-58
2022/12/01 01:21:14;;;;;;;25.43;15.27;;;;;;;;;;4870111;29;20228;-57
2022/12/01 01:23:41;;;;;;;20.07;12.17;;;;;;;;;;4872079;29;20246;-58
2022/12/01 01:26:12;;;;;;;27.23;15.00;;;;;;;;;;4857144;29;20194;-59
2022/12/01 01:28:42;;;;;;;27.60;16.37;;;;;;;;;;4873383;29;20243;-58
2022/12/01 01:31:18;;;;;;;24.77;16.13;;;;;;;;;;4856252;29;20705;-59
2022/12/01 01:33:44;;;;;;;27.00;15.90;;;;;;;;;;4874211;29;20195;-59
2022/12/01 01:36:10;;;;;;;25.27;15.53;;;;;;;;;;4870726;29;20191;-59
2022/12/01 01:38:37;;;;;;;24.10;14.93;;;;;;;;;;4873722;29;20214;-58
2022/12/01 01:41:04;;;;;;;28.93;16.77;;;;;;;;;;4871034;29;20235;-59
2022/12/01 01:43:38;;;;;;;26.47;16.20;;;;;;;;;;4871414;29;20360;-58
2022/12/01 01:46:13;;;;;;;26.70;15.63;;;;;;;;;;4869479;29;20194;-61
2022/12/01 01:48:40;;;;;;;28.53;16.97;;;;;;;;;;4871969;29;20187;-58
2022/12/01 01:51:10;;;;;;;25.43;16.10;;;;;;;;;;4871645;29;20245;-64
2022/12/01 01:53:59;;;;;;;24.03;15.17;;;;;;;;;;4873960;29;21093;-59
2022/12/01 01:56:26;;;;;;;28.43;17.50;;;;;;;;;;4873906;29;20194;-59
2022/12/01 01:58:52;;;;;;;30.80;17.43;;;;;;;;;;4875489;29;20266;-59
2022/12/01 02:01:18;;;;;;;30.97;17.17;;;;;;;;;;4873598;29;20187;-59
2022/12/01 02:03:45;;;;;;;25.23;16.50;;;;;;;;;;4873304;29;20722;-59
2022/12/01 02:06:11;;;;;;;32.30;17.90;;;;;;;;;;4869818;29;20957;-58
2022/12/01 02:08:37;;;;;;;30.83;17.37;;;;;;;;;;4874231;29;20187;-59
2022/12/01 02:11:21;;;;;;;32.80;17.37;;;;;;;;;;4872594;29;20183;-60
2022/12/01 02:14:02;;;;;;;29.90;17.60;;;;;;;;;;4869999;29;20279;-59
2022/12/01 02:16:41;;;;;;;30.30;18.20;;;;;;;;;;4872388;29;20190;-58
2022/12/01 02:19:07;;;;;;;32.77;17.77;;;;;;;;;;4873895;29;20195;-59
2022/12/01 02:21:36;;;;;;;34.67;18.33;;;;;;;;;;4854972;29;20183;-59
2022/12/01 02:24:24;;;;;;;34.10;18.20;;;;;;;;;;4861727;29;20214;-59
2022/12/01 02:26:56;;;;;;;35.20;19.00;;;;;;;;;;4871909;29;20912;-58
2022/12/01 02:29:46;;;;;;;40.03;20.03;;;;;;;;;;4875070;29;20205;-59
2022/12/01 02:32:12;;;;;;;30.60;18.33;;;;;;;;;;4870739;29;20292;-59
2022/12/01 02:34:44;;;;;;;35.17;18.23;;;;;;;;;;4871298;29;20263;-60
2022/12/01 02:37:13;;;;;;;35.33;18.20;;;;;;;;;;4871286;29;20187;-59
2022/12/01 02:39:49;;;;;;;34.27;17.87;;;;;;;;;;4873554;29;20255;-59
2022/12/01 02:45:16;;;;;;;29.97;17.73;;;;;;;;;;4871647;29;20195;-59
2022/12/01 02:47:44;;;;;;;32.67;17.83;;;;;;;;;;4871724;29;20183;-59
2022/12/01 02:50:11;;;;;;;34.20;19.40;;;;;;;;;;4872660;29;20233;-58
2022/12/01 02:52:38;;;;;;;37.90;19.03;;;;;;;;;;4867685;29;20183;-59
2022/12/01 02:55:04;;;;;;;32.57;19.20;;;;;;;;;;4871770;29;20647;-59
2022/12/01 02:57:30;;;;;;;37.00;19.60;;;;;;;;;;4870963;29;20650;-59
2022/12/01 02:59:56;;;;;;;32.37;18.90;;;;;;;;;;4871671;29;20266;-59
2022/12/01 03:02:41;;;;;;;35.47;18.60;;;;;;;;;;4870575;29;20760;-60
2022/12/01 03:05:18;;;;;;;32.63;18.80;;;;;;;;;;4865675;29;20537;-60
2022/12/01 03:07:47;;;;;;;31.37;18.77;;;;;;;;;;4867975;29;20179;-58
2022/12/01 03:10:25;;;;;;;36.07;18.73;;;;;;;;;;4880685;29;20617;-59
2022/12/01 03:13:01;;;;;;;29.57;17.97;;;;;;;;;;4871396;29;20223;-59
2022/12/01 03:15:34;;;;;;;33.57;18.73;;;;;;;;;;4872061;29;20187;-58
2022/12/01 03:18:19;;;;;;;36.57;19.37;;;;;;;;;;4856236;29;20183;-59
2022/12/01 03:20:52;;;;;;;33.17;18.37;;;;;;;;;;4868891;29;20291;-59
2022/12/01 03:23:20;;;;;;;33.87;18.23;;;;;;;;;;4871021;29;20204;-59
2022/12/01 03:25:48;;;;;;;33.93;18.77;;;;;;;;;;4856176;29;20210;-60
2022/12/01 03:28:18;;;;;;;35.50;19.87;;;;;;;;;;4870116;29;20174;-59
2022/12/01 03:30:45;;;;;;;34.77;19.40;;;;;;;;;;4873116;29;20313;-60
2022/12/01 03:33:22;;;;;;;34.17;18.60;;;;;;;;;;4871345;29;20244;-59
2022/12/01 03:35:53;;;;;;;35.17;18.77;;;;;;;;;;4853718;29;20588;-59
2022/12/01 03:38:27;;;;;;;31.70;17.80;;;;;;;;;;4873656;29;20167;-59
2022/12/01 03:40:58;;;;;;;31.50;19.17;;;;;;;;;;4872712;29;20211;-59
2022/12/01 03:43:26;;;;;;;35.03;19.47;;;;;;;;;;4871444;29;20191;-60
2022/12/01 03:46:11;;;;;;;36.03;19.57;;;;;;;;;;4871999;29;20191;-59
2022/12/01 03:48:38;;;;;;;31.97;18.17;;;;;;;;;;4855101;29;20170;-59
2022/12/01 03:51:07;;;;;;;29.73;17.53;;;;;;;;;;4868970;29;20183;-59
2022/12/01 03:53:48;;;;;;;33.87;19.77;;;;;;;;;;4864818;29;20195;-58
2022/12/01 03:56:17;;;;;;;38.83;18.97;;;;;;;;;;4871321;29;20282;-59
2022/12/01 03:58:44;;;;;;;30.30;17.93;;;;;;;;;;4872671;29;20183;-59
2022/12/01 04:01:12;;;;;;;32.53;19.10;;;;;;;;;;4871094;29;20215;-59
2022/12/01 04:03:38;;;;;;;28.67;16.97;;;;;;;;;;4854521;29;20247;-59
2022/12/01 04:06:04;;;;;;;33.50;17.67;;;;;;;;;;4868042;29;21158;-59
2022/12/01 04:08:32;;;;;;;26.50;16.67;;;;;;;;;;4870469;29;21035;-58
2022/12/01 04:10:58;;;;;;;27.63;16.47;;;;;;;;;;4853853;29;20274;-60
2022/12/01 04:13:25;;;;;;;28.03;16.47;;;;;;;;;;4868260;29;20728;-60
2022/12/01 04:15:52;;;;;;;28.07;17.20;;;;;;;;;;4870452;29;20187;-60
2022/12/01 04:18:18;;;;;;;29.87;17.10;;;;;;;;;;4870195;29;20183;-59
2022/12/01 04:20:49;;;;;;;26.13;14.60;;;;;;;;;;4852364;29;20206;-59
2022/12/01 04:26:04;;;;;;;32.33;16.17;;;;;;;;;;4871325;29;20716;-59
2022/12/01 04:28:30;;;;;;;26.57;17.03;;;;;;;;;;4872089;29;20199;-59
2022/12/01 04:30:56;;;;;;;30.00;17.97;;;;;;;;;;4869794;29;20247;-59
2022/12/01 04:33:22;;;;;;;25.00;14.73;;;;;;;;;;4834576;29;20238;-58
2022/12/01 04:35:58;;;;;;;22.93;15.17;;;;;;;;;;4834136;29;20200;-59
2022/12/01 04:38:25;;;;;;;22.47;14.73;;;;;;;;;;4831883;29;20730;-59
2022/12/01 04:40:51;;;;;;;25.47;14.57;;;;;;;;;;4851901;29;20250;-58
2022/12/01 04:43:17;;;;;;;24.27;15.63;;;;;;;;;;4852355;29;20183;-58
2022/12/01 04:45:43;;;;;;;23.63;14.73;;;;;;;;;;4838409;29;20359;-58
2022/12/01 04:48:09;;;;;;;21.40;14.20;;;;;;;;;;4851517;29;20203;-59
2022/12/01 04:50:35;;;;;;;24.83;15.57;;;;;;;;;;4853266;29;20188;-57
2022/12/01 04:53:01;;;;;;;22.90;14.37;;;;;;;;;;4853433;29;20220;-56
2022/12/01 04:55:27;;;;;;;25.53;15.13;;;;;;;;;;4854956;29;20206;-57
2022/12/01 04:57:53;;;;;;;28.53;15.93;;;;;;;;;;4853421;29;20643;-56
2022/12/01 05:00:19;;;;;;;24.20;15.07;;;;;;;;;;4855172;29;20212;-58
2022/12/01 05:02:46;;;;;;;27.70;15.80;;;;;;;;;;4855173;29;20184;-58
2022/12/01 05:05:13;;;;;;;27.97;16.97;;;;;;;;;;4854657;29;20263;-57
2022/12/01 05:07:39;;;;;;;26.80;15.40;;;;;;;;;;4853105;29;20183;-57
2022/12/01 05:10:05;;;;;;;23.50;14.10;;;;;;;;;;4836089;29;20235;-56
2022/12/01 05:12:31;;;;;;;27.70;17.10;;;;;;;;;;4853949;29;20272;-58
2022/12/01 05:14:57;;;;;;;30.03;15.83;;;;;;;;;;4856729;29;20215;-56
2022/12/01 05:17:23;;;;;;;28.73;17.03;;;;;;;;;;4854230;29;20662;-56
2022/12/01 05:22:34;;;;;;;31.67;16.20;;;;;;;;;;4854753;29;20219;-57
2022/12/01 05:25:00;;;;;;;32.73;16.43;;;;;;;;;;4855693;29;20235;-58
2022/12/01 05:27:26;;;;;;;30.07;18.07;;;;;;;;;;4854924;29;21146;-56
2022/12/01 05:29:52;;;;;;;32.70;19.20;;;;;;;;;;4861301;29;20261;-57
2022/12/01 05:32:24;;;;;;;32.57;16.90;;;;;;;;;;4871779;29;20297;-56
2022/12/01 05:34:50;;;;;;;30.77;17.37;;;;;;;;;;4859207;29;20187;-58
2022/12/01 05:37:17;;;;;;;24.63;16.53;;;;;;;;;;4872601;29;20673;-57
2022/12/01 05:39:49;;;;;;;30.13;16.87;;;;;;;;;;4876340;29;20545;-56
2022/12/01 05:42:16;;;;;;;30.57;17.23;;;;;;;;;;4867295;29;20175;-56
2022/12/01 05:44:42;;;;;;;32.80;17.93;;;;;;;;;;4871460;29;20187;-56
2022/12/01 05:47:08;;;;;;;30.30;18.70;;;;;;;;;;4857771;29;20183;-57
2022/12/01 05:49:34;;;;;;;33.07;19.10;;;;;;;;;;4872210;29;20191;-57
2022/12/01 05:52:08;;;;;;;33.80;18.30;;;;;;;;;;4869203;29;20290;-56
2022/12/01 05:54:34;;;;;;;28.00;17.30;;;;;;;;;;4870553;29;20188;-59
2022/12/01 05:57:00;;;;;;;30.80;19.13;;;;;;;;;;4873516;29;20235;-59
2022/12/01 05:59:27;;;;;;;29.90;18.13;;;;;;;;;;4863120;29;20206;-59
2022/12/01 06:01:53;;;;;;;33.77;17.80;;;;;;;;;;4871001;29;20222;-59
2022/12/01 06:04:19;;;;;;;32.53;18.07;;;;;;;;;;4872033;29;20579;-59
2022/12/01 06:06:45;;;;;;;28.60;17.27;;;;;;;;;;4873748;29;20176;-59
2022/12/01 06:09:11;;;;;;;28.13;17.43;;;;;;;;;;4856135;29;20530;-59
2022/12/01 06:11:37;;;;;;;30.87;16.07;;;;;;;;;;4873499;29;20208;-58
2022/12/01 06:14:03;;;;;;;28.93;16.83;;;;;;;;;;4873648;29;20407;-59
2022/12/01 06:16:29;;;;;;;30.97;17.17;;;;;;;;;;4870974;29;20182;-58
2022/12/01 06:18:55;;;;;;;32.23;18.00;;;;;;;;;;4874032;29;20175;-56
2022/12/01 06:21:21;;;;;;;26.43;16.90;;;;;;;;;;4869825;29;20206;-56
2022/12/01 06:23:47;;;;;;;31.67;18.40;;;;;;;;;;4874188;29;20203;-56
2022/12/01 06:26:13;;;;;;;31.90;18.10;;;;;;;;;;4864646;29;20187;-58
2022/12/01 06:28:39;;;;;;;32.00;18.63;;;;;;;;;;4865391;29;20442;-56
2022/12/01 06:31:18;;;;;;;23.90;15.37;;;;;;;;;;4865513;29;20798;-57
2022/12/01 06:33:44;;;;;;;30.27;15.90;;;;;;;;;;4873063;29;20168;-56
2022/12/01 06:36:10;;;;;;;25.60;15.87;;;;;;;;;;4869109;29;20277;-58
2022/12/01 06:38:36;;;;;;;23.77;14.67;;;;;;;;;;4873259;29;20179;-56
2022/12/01 06:41:03;;;;;;;27.50;15.80;;;;;;;;;;4871983;29;20708;-56
2022/12/01 06:43:29;;;;;;;25.70;15.93;;;;;;;;;;4867726;29;20212;-57
2022/12/01 06:45:55;;;;;;;23.80;14.87;;;;;;;;;;4871545;29;20868;-57
2022/12/01 06:48:21;;;;;;;27.73;14.40;;;;;;;;;;4872129;29;20805;-56
2022/12/01 06:50:48;;;;;;;28.57;15.30;;;;;;;;;;4860772;29;20612;-57
2022/12/01 06:53:14;;;;;;;29.47;15.60;;;;;;;;;;4872531;29;20635;-56
2022/12/01 06:55:40;;;;;;;27.33;14.57;;;;;;;;;;4872394;29;20189;-57
2022/12/01 06:58:06;;;;;;;24.43;14.53;;;;;;;;;;4872644;29;20762;-56
2022/12/01 07:00:32;;;;;;;23.23;13.90;;;;;;;;;;4873091;29;20207;-56
2022/12/01 07:02:58;;;;;;;25.60;15.30;;;;;;;;;;4855587;29;20193;-57
2022/12/01 07:05:25;;;;;;;23.10;13.17;;;;;;;;;;4854573;29;20187;-57
2022/12/01 07:07:51;;;;;;;26.17;14.60;;;;;;;;;;4856628;29;20183;-56
2022/12/01 07:10:17;;;;;;;27.80;15.83;;;;;;;;;;4873309;29;20181;-57
2022/12/01 07:12:43;;;;;;;24.07;13.20;;;;;;;;;;4873361;29;20171;-56
2022/12/01 07:15:09;;;;;;;24.63;14.10;;;;;;;;;;4873550;29;20172;-57
2022/12/01 07:17:36;;;;;;;27.03;15.33;;;;;;;;;;4873365;29;20176;-56
2022/12/01 07:20:02;;;;;;;26.53;15.07;;;;;;;;;;4873435;29;20634;-57
2022/12/01 07:22:29;;;;;;;24.90;13.93;;;;;;;;;;4872185;29;20686;-57
2022/12/01 07:24:55;;;;;;;22.57;14.03;;;;;;;;;;4873197;29;20199;-56
2022/12/01 07:27:21;;;;;;;24.17;14.10;;;;;;;;;;4869509;29;20243;-57
2022/12/01 07:29:47;;;;;;;30.10;16.10;;;;;;;;;;4873615;29;20227;-57
2022/12/01 07:32:13;;;;;;;29.33;16.27;;;;;;;;;;4871016;29;20198;-56
2022/12/01 07:34:39;;;;;;;24.63;14.43;;;;;;;;;;4855336;29;20183;-57
2022/12/01 07:37:05;;;;;;;27.37;14.37;;;;;;;;;;4861413;29;20176;-57
2022/12/01 07:39:31;;;;;;;30.07;15.23;;;;;;;;;;4870977;29;20513;-56
2022/12/01 07:41:57;;;;;;;22.93;14.03;;;;;;;;;;4870993;29;20168;-56
2022/12/01 07:44:23;;;;;;;27.63;16.13;;;;;;;;;;4871461;29;20342;-56
2022/12/01 07:46:49;;;;;;;26.70;15.57;;;;;;;;;;4871480;29;20234;-57
2022/12/01 07:49:15;;;;;;;24.77;16.40;;;;;;;;;;4870517;29;20460;-56
2022/12/01 07:51:41;;;;;;;26.80;14.37;;;;;;;;;;4869808;29;20179;-57
2022/12/01 07:54:07;;;;;;;28.53;15.80;;;;;;;;;;4870003;29;20202;-57
2022/12/01 07:56:33;;;;;;;29.40;16.07;;;;;;;;;;4867487;29;20179;-56
2022/12/01 07:58:59;;;;;;;29.20;16.87;;;;;;;;;;4870091;29;20164;-57
2022/12/01 08:01:25;;;;;;;25.83;15.10;;;;;;;;;;4867619;29;20218;-56
2022/12/01 08:03:52;;;;;;;31.77;17.07;;;;;;;;;;4870443;29;20219;-56
2022/12/01 08:06:19;;;;;;;28.13;15.20;;;;;;;;;;4869682;29;20717;-56
2022/12/01 08:08:45;;;;;;;28.80;15.23;;;;;;;;;;4870588;29;20179;-56
2022/12/01 08:11:21;;;;;;;32.40;16.50;;;;;;;;;;4869838;29;20194;-56
2022/12/01 08:13:48;;;;;;;29.83;17.17;;;;;;;;;;4871713;29;20171;-57
2022/12/01 08:16:15;;;;;;;30.63;16.73;;;;;;;;;;4869299;29;20183;-56
2022/12/01 08:18:42;;;;;;;28.17;16.87;;;;;;;;;;4868874;29;20197;-56
2022/12/01 08:21:10;;;;;;;32.67;16.77;;;;;;;;;;4868100;29;20195;-58
2022/12/01 08:23:36;;;;;;;23.30;16.13;;;;;;;;;;4870245;29;20558;-56
2022/12/01 08:26:03;;;;;;;31.00;16.97;;;;;;;;;;4865388;29;20664;-57
2022/12/01 08:28:30;;;;;;;29.93;16.40;;;;;;;;;;4859551;29;20186;-57
2022/12/01 08:30:56;;;;;;;27.27;16.60;;;;;;;;;;4871726;29;20230;-56
2022/12/01 08:33:22;;;;;;;24.80;15.63;;;;;;;;;;4876484;29;20170;-57
2022/12/01 08:35:48;;;;;;;26.30;16.53;;;;;;;;;;4872816;29;20182;-57
2022/12/01 08:38:14;;;;;;;31.53;17.70;;;;;;;;;;4874961;29;20493;-57
2022/12/01 08:40:40;;;;;;;30.17;17.47;;;;;;;;;;4871429;29;20282;-56
2022/12/01 08:43:06;;;;;;;30.43;16.93;;;;;;;;;;4873633;29;20172;-57
2022/12/01 08:45:32;;;;;;;31.03;15.83;;;;;;;;;;4870754;29;20759;-57
2022/12/01 08:47:59;;;;;;;32.60;17.70;;;;;;;;;;4872077;29;20170;-56
2022/12/01 08:50:26;;;;;;;26.33;16.33;;;;;;;;;;4870223;29;20175;-57
2022/12/01 08:52:52;;;;;;;32.50;17.40;;;;;;;;;;4873165;29;20512;-57
2022/12/01 08:55:18;;;;;;;29.57;17.30;;;;;;;;;;4871131;29;20180;-57
2022/12/01 08:57:44;;;;;;;29.70;18.30;;;;;;;;;;4856676;29;20191;-56
2022/12/01 09:00:11;;;;;;;28.60;17.13;;;;;;;;;;4869656;29;20213;-57
2022/12/01 09:02:37;;;;;;;29.83;16.93;;;;;;;;;;4872257;29;20232;-57
2022/12/01 09:05:03;;;;;;;30.70;18.00;;;;;;;;;;4870636;29;20548;-57
2022/12/01 09:07:30;;;;;;;30.10;17.13;;;;;;;;;;4868547;29;20669;-57
2022/12/01 09:09:56;;;;;;;30.13;18.37;;;;;;;;;;4872929;29;20175;-57
2022/12/01 09:12:22;;;;;;;32.57;16.73;;;;;;;;;;4871153;29;20189;-57
2022/12/01 09:14:50;;;;;;;29.00;16.93;;;;;;;;;;4868783;29;20198;-58
2022/12/01 09:17:16;;;;;;;27.80;15.43;;;;;;;;;;4871427;29;20529;-57
2022/12/01 09:19:43;;;;;;;29.03;16.90;;;;;;;;;;4868148;29;20410;-58
2022/12/01 09:22:10;;;;;;;28.37;17.43;;;;;;;;;;4869606;29;20187;-57
2022/12/01 09:24:36;;;;;;;28.03;17.47;;;;;;;;;;4870119;29;20698;-57
2022/12/01 09:27:02;;;;;;;27.90;17.67;;;;;;;;;;4869403;29;20477;-57
2022/12/01 09:29:28;;;;;;;30.73;18.23;;;;;;;;;;4867143;29;20171;-57
2022/12/01 09:31:56;;;;;;;28.70;16.87;;;;;;;;;;4890947;29;20719;-57
2022/12/01 09:34:22;;;;;;;30.63;19.00;;;;;;;;;;4878806;29;20381;-56
2022/12/01 09:36:48;;;;;;;27.60;17.47;;;;;;;;;;4880170;29;20177;-57
2022/12/01 09:39:19;;;;;;;25.57;16.67;;;;;;;;;;4875481;29;20443;-57
2022/12/01 09:41:51;;;;;;;33.23;17.37;;;;;;;;;;4875333;29;20183;-58
2022/12/01 09:44:27;;;;;;;29.50;17.67;;;;;;;;;;4875777;29;20246;-57
2022/12/01 09:47:17;;;;;;;28.20;18.13;;;;;;;;;;4882880;29;20190;-57
2022/12/01 09:50:01;;;;;;;28.33;17.20;;;;;;;;;;4875496;29;20179;-57
2022/12/01 09:52:28;;;;;;;27.80;17.57;;;;;;;;;;4872138;29;20199;-57
2022/12/01 09:54:55;;;;;;;29.80;17.80;;;;;;;;;;4856080;29;20212;-56
2022/12/01 09:57:33;;;;;;;31.83;17.33;;;;;;;;;;4872824;29;20187;-57
2022/12/01 10:00:01;;;;;;;31.43;18.43;;;;;;;;;;4873026;29;20218;-57
2022/12/01 10:02:33;;;;;;;25.37;17.00;;;;;;;;;;4874429;29;20171;-56
2022/12/01 10:05:00;;;;;;;28.97;16.43;;;;;;;;;;4882244;29;20178;-57
2022/12/01 10:07:48;;;;;;;32.23;17.97;;;;;;;;;;4884852;29;20579;-57
2022/12/01 10:10:16;;;;;;;29.67;16.93;;;;;;;;;;4875491;29;20576;-57
2022/12/01 10:12:43;;;;;;;26.07;16.63;;;;;;;;;;4875274;29;20238;-56
2022/12/01 10:15:12;;;;;;;29.20;17.63;;;;;;;;;;4869085;29;20223;-57
2022/12/01 10:17:41;;;;;;;24.47;16.37;;;;;;;;;;4885240;29;20213;-57
2022/12/01 10:20:16;;;;;;;26.40;16.03;;;;;;;;;;4879679;29;20217;-57
2022/12/01 10:22:51;;;;;;;27.77;16.77;;;;;;;;;;4866410;29;20171;-56
2022/12/01 10:25:17;;;;;;;27.43;15.47;;;;;;;;;;4872966;29;20686;-57
2022/12/01 10:28:02;;;;;;;30.63;17.50;;;;;;;;;;4875192;29;20183;-57
2022/12/01 10:30:28;;;;;;;22.60;15.63;;;;;;;;;;4881343;29;20247;-57
2022/12/01 10:32:57;;;;;;;25.93;16.53;;;;;;;;;;4890787;29;20203;-57
2022/12/01 10:35:28;;;;;;;22.47;15.33;;;;;;;;;;4871644;29;20191;-57
2022/12/01 10:37:58;;;;;;;25.20;16.37;;;;;;;;;;4885820;29;20191;-57
2022/12/01 10:40:25;;;;;;;24.67;15.50;;;;;;;;;;4872872;29;20207;-57
2022/12/01 10:42:52;;;;;;;23.37;14.23;;;;;;;;;;4878649;29;20812;-57
2022/12/01 10:45:18;;;;;;;28.67;16.43;;;;;;;;;;4873475;29;20187;-57
2022/12/01 10:48:02;;;;;;;25.57;16.17;;;;;;;;;;4891816;29;20183;-58
2022/12/01 10:50:28;;;;;;;20.93;14.17;;;;;;;;;;4875662;29;20321;-57
2022/12/01 10:52:54;;;;;;;21.70;14.73;;;;;;;;;;4865836;29;20716;-57
2022/12/01 10:55:25;;;;;;;26.50;15.23;;;;;;;;;;4877747;29;20260;-57
2022/12/01 10:57:52;;;;;;;25.57;15.53;;;;;;;;;;4872936;29;20178;-57
2022/12/01 11:00:26;;;;;;;24.70;16.13;;;;;;;;;;4873534;29;20199;-57
2022/12/01 11:02:52;;;;;;;25.73;14.93;;;;;;;;;;4873291;29;20191;-57
2022/12/01 11:05:31;;;;;;;23.83;16.20;;;;;;;;;;4873397;29;20163;-57
2022/12/01 11:07:57;;;;;;;24.10;15.47;;;;;;;;;;4873537;29;20159;-57
2022/12/01 11:10:28;;;;;;;25.57;15.20;;;;;;;;;;4854819;29;20183;-57
2022/12/01 11:12:56;;;;;;;23.10;16.10;;;;;;;;;;4873222;29;20208;-57
2022/12/01 11:15:24;;;;;;;23.67;15.17;;;;;;;;;;4873248;29;20270;-58
2022/12/01 11:17:56;;;;;;;21.47;15.77;;;;;;;;;;4873542;29;20541;-56
2022/12/01 11:20:36;;;;;;;22.17;14.47;;;;;;;;;;4868017;29;20203;-58
2022/12/01 11:23:20;;;;;;;23.90;15.27;;;;;;;;;;4868286;29;20171;-57
2022/12/01 11:25:57;;;;;;;22.03;15.17;;;;;;;;;;4862597;29;20199;-58
2022/12/01 11:28:23;;;;;;;23.93;14.93;;;;;;;;;;4874141;29;20187;-57
2022/12/01 11:30:57;;;;;;;23.87;15.47;;;;;;;;;;4873233;29;20729;-57
2022/12/01 11:33:23;;;;;;;22.13;15.70;;;;;;;;;;4873076;29;20199;-57
2022/12/01 11:35:49;;;;;;;23.60;15.30;;;;;;;;;;4869924;29;20639;-57
2022/12/01 11:38:30;;;;;;;22.67;15.03;;;;;;;;;;4860125;29;20270;-57
2022/12/01 11:40:57;;;;;;;22.53;15.50;;;;;;;;;;4871459;29;20203;-57
2022/12/01 11:43:31;;;;;;;21.70;15.23;;;;;;;;;;4855569;29;20667;-57
2022/12/01 11:45:59;;;;;;;21.10;13.57;;;;;;;;;;4867447;29;20193;-56
2022/12/01 11:48:26;;;;;;;21.40;14.97;;;;;;;;;;4866044;29;20179;-57
2022/12/01 11:51:10;;;;;;;31.77;17.17;;;;;;;;;;4862700;29;20678;-56
2022/12/01 11:53:37;;;;;;;22.30;14.83;;;;;;;;;;4880021;29;20290;-57
2022/12/01 11:56:14;;;;;;;21.00;14.37;;;;;;;;;;4872465;29;20179;-56
2022/12/01 11:58:41;;;;;;;21.20;14.43;;;;;;;;;;4872329;29;20193;-57
2022/12/01 12:01:15;;;;;;;22.57;15.00;;;;;;;;;;4866933;29;20222;-56
2022/12/01 12:03:48;;;;;;;20.97;14.20;;;;;;;;;;4866966;29;20187;-57
2022/12/01 12:06:21;;;;;;;20.07;14.57;;;;;;;;;;4869791;29;20197;-56
2022/12/01 12:09:06;;;;;;;22.97;15.30;;;;;;;;;;4871365;29;20187;-57
2022/12/01 12:11:32;;;;;;;23.70;14.43;;;;;;;;;;4871528;29;20186;-56
2022/12/01 12:14:04;;;;;;;18.27;14.13;;;;;;;;;;4872511;29;20175;-56
2022/12/01 12:16:53;;;;;;;23.60;14.67;;;;;;;;;;4869992;29;20302;-57
2022/12/01 12:19:29;;;;;;;20.00;13.63;;;;;;;;;;4868659;29;20411;-57
2022/12/01 12:22:05;;;;;;;20.10;15.50;;;;;;;;;;4857802;29;20198;-56
2022/12/01 12:24:47;;;;;;;24.60;14.40;;;;;;;;;;4864118;29;20266;-57
2022/12/01 12:27:32;;;;;;;22.40;14.93;;;;;;;;;;4869361;29;20639;-57
2022/12/01 12:30:02;;;;;;;21.30;14.70;;;;;;;;;;4877001;29;20183;-57
2022/12/01 12:32:41;;;;;;;21.00;14.60;;;;;;;;;;4881026;29;20274;-56
2022/12/01 12:35:08;;;;;;;19.93;14.23;;;;;;;;;;4853674;29;20242;-57
2022/12/01 12:37:43;;;;;;;18.60;14.53;;;;;;;;;;4871918;29;20306;-57
2022/12/01 12:40:19;;;;;;;22.60;14.90;;;;;;;;;;4870122;29;20825;-56
2022/12/01 12:43:04;;;;;;;19.00;13.67;;;;;;;;;;4869021;29;20186;-56
2022/12/01 12:45:48;;;;;;;24.60;15.53;;;;;;;;;;4870870;29;20211;-57
2022/12/01 12:48:17;;;;;;;22.90;14.53;;;;;;;;;;4873661;29;20709;-56
2022/12/01 12:50:47;;;;;;;22.80;15.23;;;;;;;;;;4862493;29;20562;-57
2022/12/01 12:53:15;;;;;;;20.67;14.63;;;;;;;;;;4870891;29;20191;-56
2022/12/01 12:55:43;;;;;;;22.97;15.20;;;;;;;;;;4873874;29;20206;-57
2022/12/01 12:58:19;;;;;;;21.17;15.07;;;;;;;;;;4878149;29;20171;-56
2022/12/01 13:00:53;;;;;;;22.00;14.83;;;;;;;;;;4869715;29;20281;-57
2022/12/01 13:03:40;;;;;;;21.93;16.07;;;;;;;;;;4873162;29;20679;-56
2022/12/01 13:06:09;;;;;;;26.17;15.73;;;;;;;;;;4876024;29;20194;-57
2022/12/01 13:08:44;;;;;;;21.73;16.00;;;;;;;;;;4876210;29;20187;-57
2022/12/01 13:11:22;;;;;;;22.40;14.80;;;;;;;;;;4876805;29;20616;-57
2022/12/01 13:14:07;;;;;;;22.87;14.90;;;;;;;;;;4874312;29;20233;-57
2022/12/01 13:16:40;;;;;;;22.93;14.87;;;;;;;;;;4874373;29;20659;-57
2022/12/01 13:19:13;;;;;;;22.00;15.13;;;;;;;;;;4868699;29;20236;-57
2022/12/01 13:21:40;;;;;;;23.63;17.50;;;;;;;;;;4870038;29;20513;-56
2022/12/01 13:24:07;;;;;;;24.57;16.57;;;;;;;;;;4875922;29;20210;-57
2022/12/01 13:26:35;;;;;;;22.40;15.70;;;;;;;;;;4874552;29;20650;-57
2022/12/01 13:29:04;;;;;;;26.50;17.53;;;;;;;;;;4873636;29;20195;-57
2022/12/01 13:31:41;;;;;;;23.40;16.73;;;;;;;;;;4876143;29;20802;-56
2022/12/01 13:34:07;;;;;;;23.90;16.70;;;;;;;;;;4873700;29;20175;-55
2022/12/01 13:36:33;;;;;;;22.67;17.63;;;;;;;;;;4874411;29;20267;-56
2022/12/01 13:39:05;;;;;;;23.67;16.63;;;;;;;;;;4873136;29;20262;-56
2022/12/01 13:41:38;;;;;;;24.03;17.47;;;;;;;;;;4853428;29;20215;-57
2022/12/01 13:44:19;;;;;;;24.17;15.87;;;;;;;;;;4871419;29;20215;-56
2022/12/01 13:46:45;;;;;;;28.73;18.97;;;;;;;;;;4871977;29;20681;-56
2022/12/01 13:49:29;;;;;;;22.97;17.53;;;;;;;;;;4872839;29;20192;-56
2022/12/01 13:52:16;;;;;;;23.90;17.07;;;;;;;;;;4870208;29;20191;-56
2022/12/01 13:54:59;;;;;;;22.60;16.00;;;;;;;;;;4855351;29;20203;-57
2022/12/01 13:57:26;;;;;;;25.57;17.53;;;;;;;;;;4866779;29;20185;-56
2022/12/01 13:59:59;;;;;;;27.70;18.20;;;;;;;;;;4867536;29;20210;-56
2022/12/01 14:02:26;;;;;;;28.93;18.43;;;;;;;;;;4870467;29;20613;-56
2022/12/01 14:04:52;;;;;;;25.47;17.37;;;;;;;;;;4867659;29;20207;-57
2022/12/01 14:07:22;;;;;;;26.00;17.40;;;;;;;;;;4866248;29;20195;-56
2022/12/01 14:09:54;;;;;;;26.30;16.40;;;;;;;;;;4869985;29;20233;-56
2022/12/01 14:12:29;;;;;;;24.80;16.93;;;;;;;;;;4871731;29;20270;-57
2022/12/01 14:15:02;;;;;;;27.63;18.20;;;;;;;;;;4870355;29;20209;-57
2022/12/01 14:17:30;;;;;;;25.17;17.47;;;;;;;;;;4870122;29;20737;-55
2022/12/01 14:20:06;;;;;;;26.80;17.67;;;;;;;;;;4871257;29;20710;-56
2022/12/01 14:22:40;;;;;;;28.63;17.87;;;;;;;;;;4870098;29;20638;-56
2022/12/01 14:25:28;;;;;;;22.33;15.73;;;;;;;;;;4873484;29;20199;-57
2022/12/01 14:27:58;;;;;;;26.57;17.33;;;;;;;;;;4872922;29;20183;-57
2022/12/01 14:30:45;;;;;;;26.67;17.57;;;;;;;;;;4869151;29;20195;-57
2022/12/01 14:33:30;;;;;;;25.70;17.63;;;;;;;;;;4850122;29;20699;-56
2022/12/01 14:35:59;;;;;;;25.30;17.17;;;;;;;;;;4852944;29;20192;-56
2022/12/01 14:38:27;;;;;;;25.20;18.37;;;;;;;;;;4851774;29;20188;-57
2022/12/01 14:40:53;;;;;;;31.60;20.70;;;;;;;;;;4851119;29;20231;-61
2022/12/01 14:46:09;;;;;;;31.13;20.40;;;;;;;;;;4841571;29;20259;-63
2022/12/01 14:48:41;;;;;;;36.60;22.53;;;;;;;;;;4849512;29;20191;-63